Time;durP1;ratioP1;P1;durP2;ratioP2;P2;SDS_P1;SDS_P2;PMS_P1;PMS_P2;Temp;Humidity;BMP_temperature;BMP_pressure;BME280_temperature;BME280_humidity;BME280_pressure;Samples;Min_cycle;Max_cycle;Signal;HPM_P1;HPM_P2
2021/12/10 00:00:51;;;;;;;1.63;1.40;;;4.80;98.20;;;;;;5083314;28;20452;-76
2021/12/10 00:03:22;;;;;;;1.60;1.30;;;4.80;98.20;;;;;;5048514;28;20849;-76
2021/12/10 00:05:52;;;;;;;1.60;1.40;;;4.80;98.20;;;;;;5053410;28;20465;-76
2021/12/10 00:08:20;;;;;;;1.60;1.30;;;4.80;98.20;;;;;;5077363;28;20473;-76
2021/12/10 00:10:52;;;;;;;1.60;1.30;;;4.80;98.20;;;;;;5057875;28;20542;-76
2021/12/10 00:13:20;;;;;;;2.83;2.63;;;4.80;98.20;;;;;;5077512;28;20472;-76
2021/12/10 00:15:47;;;;;;;1.60;1.37;;;4.80;98.20;;;;;;5056436;28;20464;-76
2021/12/10 00:18:17;;;;;;;1.63;1.40;;;4.80;98.20;;;;;;5076665;28;20497;-77
2021/12/10 00:20:47;;;;;;;1.60;1.30;;;4.70;98.20;;;;;;5063329;28;20458;-77
2021/12/10 00:23:19;;;;;;;1.70;1.50;;;4.70;98.20;;;;;;5069943;28;20539;-77
2021/12/10 00:25:50;;;;;;;1.60;1.30;;;4.70;98.20;;;;;;5083219;28;20456;-77
2021/12/10 00:28:22;;;;;;;1.67;1.43;;;4.70;98.20;;;;;;5053586;28;20472;-77
2021/12/10 00:31:02;;;;;;;1.67;1.50;;;4.70;98.20;;;;;;5054609;28;20484;-76
2021/12/10 00:33:35;;;;;;;1.60;1.40;;;4.70;98.20;;;;;;5053727;28;20465;-76
2021/12/10 00:36:04;;;;;;;1.60;1.30;;;4.70;98.20;;;;;;5057948;28;20501;-77
2021/12/10 00:38:31;;;;;;;1.67;1.47;;;4.70;98.20;;;;;;5070429;28;20464;-76
2021/12/10 00:40:58;;;;;;;3.20;2.47;;;4.60;98.20;;;;;;5056749;28;20454;-77
2021/12/10 00:43:25;;;;;;;1.70;1.50;;;4.60;98.20;;;;;;5070295;28;20532;-77
2021/12/10 00:45:52;;;;;;;1.60;1.43;;;4.50;98.20;;;;;;5056136;28;21130;-77
2021/12/10 00:48:20;;;;;;;1.70;1.50;;;4.50;98.20;;;;;;5071410;28;20480;-76
2021/12/10 00:50:49;;;;;;;1.63;1.40;;;4.40;98.20;;;;;;5061211;28;20568;-76
2021/12/10 00:53:18;;;;;;;1.70;1.40;;;4.40;98.20;;;;;;5085484;28;20462;-76
2021/12/10 00:55:46;;;;;;;1.70;1.50;;;4.40;98.20;;;;;;5065221;28;21055;-77
2021/12/10 00:58:13;;;;;;;1.63;1.33;;;4.30;98.20;;;;;;5053495;28;20549;-76
2021/12/10 01:00:44;;;;;;;1.60;1.40;;;4.30;98.20;;;;;;5058748;28;21085;-76
2021/12/10 01:03:14;;;;;;;1.70;1.40;;;4.20;98.20;;;;;;5068082;28;20530;-76
2021/12/10 01:05:45;;;;;;;1.60;1.40;;;4.20;98.20;;;;;;5085583;28;20488;-76
2021/12/10 01:08:12;;;;;;;1.67;1.40;;;4.20;98.20;;;;;;5070302;28;21055;-76
2021/12/10 01:10:43;;;;;;;1.70;1.50;;;4.10;98.20;;;;;;5086835;28;20480;-77
2021/12/10 01:13:14;;;;;;;1.70;1.60;;;4.10;98.20;;;;;;5070810;28;20476;-77
2021/12/10 01:15:54;;;;;;;1.63;1.40;;;4.00;98.20;;;;;;5081158;28;20996;-76
2021/12/10 01:24:32;;;;;;;1.60;1.40;;;4.00;98.20;;;;;;5075157;28;20468;-76
2021/12/10 01:30:11;;;;;;;1.70;1.40;;;4.00;98.20;;;;;;5077088;28;20453;-76
2021/12/10 01:32:51;;;;;;;1.60;1.40;;;3.90;98.20;;;;;;5081468;28;20488;-76
2021/12/10 01:35:29;;;;;;;1.70;1.43;;;3.90;98.20;;;;;;5078207;28;20450;-76
2021/12/10 01:38:02;;;;;;;1.60;1.33;;;3.90;98.20;;;;;;5060630;28;20537;-76
2021/12/10 01:40:29;;;;;;;1.67;1.43;;;3.90;98.20;;;;;;5064657;28;20470;-76
2021/12/10 01:43:06;;;;;;;1.70;1.60;;;3.90;98.20;;;;;;5070712;28;20559;-76
2021/12/10 01:45:36;;;;;;;1.70;1.60;;;4.00;98.20;;;;;;5065383;28;20848;-76
2021/12/10 01:48:09;;;;;;;1.70;1.50;;;4.00;98.20;;;;;;5089385;28;20483;-76
2021/12/10 01:50:37;;;;;;;1.70;1.40;;;4.00;98.20;;;;;;5081951;28;20480;-76
2021/12/10 01:53:08;;;;;;;1.70;1.50;;;4.10;98.20;;;;;;5079070;28;20480;-76
2021/12/10 01:55:38;;;;;;;1.60;1.40;;;4.10;98.20;;;;;;5065611;28;20507;-76
2021/12/10 01:58:10;;;;;;;1.60;1.40;;;4.20;98.20;;;;;;5089767;28;20876;-76
2021/12/10 02:00:41;;;;;;;1.70;1.50;;;4.30;98.20;;;;;;5086421;28;20448;-76
2021/12/10 02:03:08;;;;;;;1.63;1.40;;;4.30;98.20;;;;;;5082251;28;20481;-76
2021/12/10 02:05:36;;;;;;;1.60;1.40;;;4.30;98.20;;;;;;5086573;28;20457;-76
2021/12/10 02:08:03;;;;;;;1.63;1.40;;;4.40;98.20;;;;;;5084416;28;20564;-76
2021/12/10 02:10:31;;;;;;;1.70;1.50;;;4.40;98.20;;;;;;5080403;28;20486;-76
2021/12/10 02:12:59;;;;;;;1.70;1.50;;;4.40;98.20;;;;;;5085000;28;21112;-76
2021/12/10 02:15:29;;;;;;;1.87;1.67;;;4.50;98.20;;;;;;5080251;28;20998;-76
2021/12/10 02:17:57;;;;;;;1.67;1.40;;;4.50;98.20;;;;;;5085521;28;21002;-77
2021/12/10 02:20:27;;;;;;;1.63;1.40;;;4.50;98.20;;;;;;5083662;28;20452;-76
2021/12/10 02:22:56;;;;;;;1.60;1.40;;;4.50;98.20;;;;;;5083286;28;20703;-76
2021/12/10 02:25:25;;;;;;;1.70;1.50;;;4.50;98.20;;;;;;5083668;28;20488;-76
2021/12/10 02:27:53;;;;;;;1.67;1.40;;;4.50;98.20;;;;;;5075100;27;20776;-77
2021/12/10 02:30:21;;;;;;;1.60;1.50;;;4.60;98.20;;;;;;5085009;28;20931;-76
2021/12/10 02:32:49;;;;;;;1.63;1.50;;;4.60;98.20;;;;;;5070207;28;20587;-76
2021/12/10 02:35:16;;;;;;;1.60;1.40;;;4.50;98.20;;;;;;5064569;28;20501;-76
2021/12/10 02:37:47;;;;;;;1.70;1.50;;;4.50;98.20;;;;;;5070007;28;20487;-76
2021/12/10 02:40:20;;;;;;;1.67;1.40;;;4.40;98.20;;;;;;5088645;28;21051;-76
2021/12/10 02:42:48;;;;;;;1.60;1.40;;;4.30;98.20;;;;;;5072364;28;20479;-76
2021/12/10 02:45:17;;;;;;;1.70;1.50;;;4.20;98.20;;;;;;5085862;28;20464;-75
2021/12/10 02:47:44;;;;;;;1.70;1.60;;;4.10;98.20;;;;;;5073452;28;20484;-76
2021/12/10 02:50:14;;;;;;;1.70;1.50;;;4.10;98.20;;;;;;5087903;28;21393;-76
2021/12/10 02:52:41;;;;;;;1.60;1.40;;;4.00;98.20;;;;;;5069726;28;20478;-76
2021/12/10 02:55:10;;;;;;;1.70;1.50;;;4.00;98.20;;;;;;5082536;28;20487;-76
2021/12/10 02:57:40;;;;;;;1.70;1.50;;;4.00;98.20;;;;;;5075552;27;20483;-76
2021/12/10 03:00:10;;;;;;;1.70;1.53;;;3.90;98.20;;;;;;5069745;28;20507;-76
2021/12/10 03:02:37;;;;;;;2.03;1.83;;;3.90;98.20;;;;;;5068302;28;20498;-76
2021/12/10 03:05:07;;;;;;;1.63;1.37;;;3.90;98.20;;;;;;5068999;28;20458;-76
2021/12/10 03:07:36;;;;;;;1.67;1.40;;;3.90;98.20;;;;;;5080947;27;20655;-77
2021/12/10 03:10:06;;;;;;;1.67;1.40;;;3.90;98.20;;;;;;5070261;28;20462;-76
2021/12/10 03:12:33;;;;;;;1.70;1.40;;;3.80;98.20;;;;;;5084196;28;20475;-76
2021/12/10 03:15:02;;;;;;;1.67;1.43;;;3.80;98.20;;;;;;5090016;28;20464;-76
2021/12/10 03:17:31;;;;;;;1.60;1.40;;;3.80;98.20;;;;;;5074011;28;21220;-76
2021/12/10 03:19:59;;;;;;;1.60;1.40;;;3.80;98.20;;;;;;5086218;28;20457;-77
2021/12/10 03:22:29;;;;;;;1.67;1.50;;;3.80;98.20;;;;;;5076086;28;20553;-76
2021/12/10 03:24:58;;;;;;;1.63;1.50;;;3.80;98.20;;;;;;5086429;28;20453;-76
2021/12/10 03:27:25;;;;;;;1.67;1.50;;;3.80;98.20;;;;;;5084525;28;20505;-76
2021/12/10 03:29:54;;;;;;;1.70;1.50;;;3.80;98.20;;;;;;5084735;28;20461;-76
2021/12/10 03:32:28;;;;;;;1.67;1.50;;;3.80;98.20;;;;;;5076260;28;20481;-76
2021/12/10 03:34:56;;;;;;;1.63;1.40;;;3.80;98.20;;;;;;5066817;28;20486;-77
2021/12/10 03:37:23;;;;;;;1.70;1.50;;;3.80;98.20;;;;;;5062566;28;20833;-76
2021/12/10 03:39:52;;;;;;;1.63;1.40;;;3.80;98.20;;;;;;5065778;28;20468;-76
2021/12/10 03:42:20;;;;;;;1.63;1.37;;;3.80;98.20;;;;;;5068203;28;20483;-76
2021/12/10 03:44:47;;;;;;;1.67;1.40;;;3.80;98.20;;;;;;5066999;28;20507;-76
2021/12/10 03:47:15;;;;;;;1.60;1.40;;;3.70;98.20;;;;;;5064927;28;20577;-76
2021/12/10 03:49:43;;;;;;;1.70;1.40;;;3.70;98.20;;;;;;5068394;28;20841;-77
2021/12/10 03:52:10;;;;;;;1.60;1.40;;;3.70;98.20;;;;;;5064141;28;21020;-76
2021/12/10 03:54:39;;;;;;;1.63;1.40;;;3.70;98.20;;;;;;5068476;28;20862;-76
2021/12/10 03:57:07;;;;;;;1.63;1.40;;;3.80;98.20;;;;;;5062777;28;20498;-77
2021/12/10 03:59:36;;;;;;;1.60;1.40;;;3.80;98.20;;;;;;5069905;28;21037;-76
2021/12/10 04:02:05;;;;;;;1.60;1.50;;;3.80;98.20;;;;;;5058922;28;20576;-76
2021/12/10 04:04:35;;;;;;;1.60;1.40;;;3.80;98.20;;;;;;5069112;28;20461;-76
2021/12/10 04:07:09;;;;;;;1.60;1.40;;;3.80;98.20;;;;;;5059519;28;20504;-76
2021/12/10 04:09:36;;;;;;;1.70;1.50;;;3.80;98.20;;;;;;5067918;28;20476;-76
2021/12/10 04:12:07;;;;;;;1.60;1.30;;;3.90;98.20;;;;;;5058227;28;20680;-77
2021/12/10 04:14:34;;;;;;;1.67;1.50;;;3.90;98.20;;;;;;5065378;28;20459;-77
2021/12/10 04:17:01;;;;;;;1.63;1.50;;;3.90;98.20;;;;;;5062426;28;20512;-76
2021/12/10 04:19:30;;;;;;;1.70;1.50;;;3.90;98.20;;;;;;5072215;28;20507;-76
2021/12/10 04:21:59;;;;;;;1.67;1.47;;;3.90;98.20;;;;;;5063148;28;20560;-77
2021/12/10 04:24:32;;;;;;;1.60;1.40;;;3.90;98.20;;;;;;5059280;28;20458;-77
2021/12/10 04:26:59;;;;;;;1.60;1.40;;;3.90;98.20;;;;;;5068385;28;20475;-76
2021/12/10 04:29:27;;;;;;;1.60;1.40;;;3.90;98.20;;;;;;5076306;28;20848;-76
2021/12/10 04:31:56;;;;;;;1.67;1.50;;;3.90;98.20;;;;;;5069696;28;20475;-76
2021/12/10 04:34:24;;;;;;;1.60;1.40;;;4.00;98.20;;;;;;5066495;28;20469;-76
2021/12/10 04:36:52;;;;;;;1.70;1.50;;;4.00;98.20;;;;;;5054636;28;20610;-76
2021/12/10 04:39:20;;;;;;;1.70;1.50;;;4.00;98.20;;;;;;5062437;28;20510;-76
2021/12/10 04:41:49;;;;;;;1.63;1.33;;;4.00;98.20;;;;;;5063785;28;20473;-77
2021/12/10 04:44:16;;;;;;;1.60;1.30;;;4.00;98.20;;;;;;5086943;28;20456;-76
2021/12/10 04:46:43;;;;;;;1.60;1.40;;;4.00;98.20;;;;;;5060429;28;21170;-77
2021/12/10 04:49:13;;;;;;;1.67;1.43;;;4.00;98.20;;;;;;5079434;28;20508;-76
2021/12/10 04:51:42;;;;;;;1.70;1.53;;;4.00;98.20;;;;;;5069300;28;20509;-76
2021/12/10 04:54:10;;;;;;;1.60;1.40;;;4.00;98.20;;;;;;5080122;28;20464;-76
2021/12/10 04:56:39;;;;;;;1.67;1.40;;;3.90;98.20;;;;;;5071623;28;20481;-76
2021/12/10 04:59:11;;;;;;;1.60;1.40;;;3.90;98.20;;;;;;5083473;28;20517;-76
2021/12/10 05:01:39;;;;;;;1.60;1.40;;;3.90;98.20;;;;;;5076496;28;20511;-76
2021/12/10 05:04:08;;;;;;;1.60;1.40;;;3.90;98.20;;;;;;5092000;28;20491;-76
2021/12/10 05:06:36;;;;;;;1.63;1.37;;;3.90;98.20;;;;;;5073543;28;20893;-76
2021/12/10 05:09:06;;;;;;;1.67;1.40;;;3.90;98.20;;;;;;5071999;28;20957;-76
2021/12/10 05:11:33;;;;;;;1.60;1.50;;;3.90;98.20;;;;;;5066039;28;20766;-77
2021/12/10 05:14:00;;;;;;;1.60;1.40;;;3.90;98.20;;;;;;5094404;28;20464;-76
2021/12/10 05:16:29;;;;;;;1.60;1.40;;;3.90;98.20;;;;;;5077295;28;20483;-76
2021/12/10 05:18:59;;;;;;;1.60;1.50;;;3.90;98.20;;;;;;5086531;28;20460;-77
2021/12/10 05:21:27;;;;;;;1.60;1.40;;;3.90;98.20;;;;;;5077507;28;21003;-77
2021/12/10 05:23:55;;;;;;;1.60;1.40;;;3.90;98.20;;;;;;5087827;28;20471;-76
2021/12/10 05:26:22;;;;;;;1.70;1.60;;;3.90;98.20;;;;;;5072405;28;20488;-76
2021/12/10 05:28:49;;;;;;;1.60;1.40;;;3.90;98.20;;;;;;5091940;28;20460;-76
2021/12/10 05:31:17;;;;;;;1.70;1.50;;;3.90;98.20;;;;;;5068344;28;20565;-76
2021/12/10 05:33:45;;;;;;;1.63;1.40;;;3.90;98.20;;;;;;5076738;28;20456;-76
2021/12/10 05:36:12;;;;;;;1.63;1.47;;;3.90;98.20;;;;;;5069216;28;20965;-77
2021/12/10 05:38:39;;;;;;;1.70;1.50;;;3.80;98.20;;;;;;5079833;28;20788;-76
2021/12/10 05:41:10;;;;;;;1.63;1.40;;;3.80;98.20;;;;;;5077077;28;20457;-76
2021/12/10 05:43:38;;;;;;;1.60;1.40;;;3.80;98.20;;;;;;5092411;28;20460;-76
2021/12/10 05:46:05;;;;;;;1.67;1.40;;;3.80;98.20;;;;;;5074832;28;21472;-76
2021/12/10 05:48:32;;;;;;;1.67;1.40;;;3.80;98.20;;;;;;5096044;28;20463;-77
2021/12/10 05:51:01;;;;;;;1.63;1.50;;;3.80;98.20;;;;;;5077746;28;20456;-76
2021/12/10 05:53:28;;;;;;;1.60;1.40;;;3.80;98.20;;;;;;5092349;28;20448;-77
2021/12/10 05:55:56;;;;;;;1.63;1.40;;;3.80;98.20;;;;;;5068989;28;20472;-76
2021/12/10 05:58:23;;;;;;;1.60;1.40;;;3.80;98.20;;;;;;5077163;28;20461;-76
2021/12/10 06:00:53;;;;;;;1.70;1.50;;;3.80;98.20;;;;;;5057523;28;21200;-76
2021/12/10 06:03:23;;;;;;;1.60;1.40;;;3.70;98.20;;;;;;5084901;28;20463;-78
2021/12/10 06:05:50;;;;;;;1.60;1.40;;;3.70;98.20;;;;;;5061538;28;20469;-77
2021/12/10 06:08:19;;;;;;;1.70;1.57;;;3.70;98.20;;;;;;5089735;28;20542;-76
2021/12/10 06:10:48;;;;;;;1.70;1.50;;;3.70;98.20;;;;;;5071191;28;21005;-76
2021/12/10 06:13:15;;;;;;;1.60;1.40;;;3.70;98.20;;;;;;5050835;28;20485;-76
2021/12/10 06:15:42;;;;;;;1.67;1.50;;;3.70;98.20;;;;;;5067356;28;21028;-76
2021/12/10 06:18:11;;;;;;;1.67;1.40;;;3.70;98.20;;;;;;5066809;28;20515;-77
2021/12/10 06:20:42;;;;;;;1.60;1.40;;;3.60;98.20;;;;;;5065257;28;20487;-77
2021/12/10 06:23:10;;;;;;;1.70;1.50;;;3.60;98.20;;;;;;5082372;28;20476;-77
2021/12/10 06:25:40;;;;;;;1.63;1.40;;;3.60;98.20;;;;;;5081300;28;20464;-76
2021/12/10 06:28:08;;;;;;;1.67;1.53;;;3.60;98.20;;;;;;5084578;28;20486;-76
2021/12/10 06:30:38;;;;;;;1.60;1.40;;;3.60;98.20;;;;;;5084448;28;20457;-76
2021/12/10 06:33:07;;;;;;;1.63;1.40;;;3.60;98.20;;;;;;5065152;28;20562;-77
2021/12/10 06:35:37;;;;;;;1.63;1.50;;;3.60;98.20;;;;;;5065125;28;20458;-76
2021/12/10 06:38:04;;;;;;;1.63;1.40;;;3.60;98.20;;;;;;5045609;28;20505;-76
2021/12/10 06:40:34;;;;;;;1.60;1.40;;;3.60;98.20;;;;;;5064870;28;20492;-76
2021/12/10 06:43:02;;;;;;;1.70;1.50;;;3.60;98.20;;;;;;5070893;28;20500;-75
2021/12/10 06:45:31;;;;;;;1.60;1.50;;;3.60;98.20;;;;;;5084241;28;20577;-78
2021/12/10 06:48:01;;;;;;;1.70;1.50;;;3.60;98.20;;;;;;5069442;28;20563;-78
2021/12/10 06:50:32;;;;;;;1.63;1.50;;;3.60;98.20;;;;;;5084893;28;20459;-78
2021/12/10 06:53:00;;;;;;;1.70;1.50;;;3.60;98.20;;;;;;5074471;27;20496;-78
2021/12/10 06:55:28;;;;;;;1.60;1.40;;;3.60;98.20;;;;;;5067759;28;20497;-77
2021/12/10 06:57:56;;;;;;;1.63;1.50;;;3.60;98.20;;;;;;5069801;28;20493;-77
2021/12/10 07:00:27;;;;;;;1.60;1.40;;;3.50;98.20;;;;;;5066687;28;20473;-78
2021/12/10 07:02:54;;;;;;;1.60;1.50;;;3.50;98.20;;;;;;5070367;28;21071;-77
2021/12/10 07:05:21;;;;;;;1.67;1.40;;;3.50;98.20;;;;;;5089026;28;20966;-78
2021/12/10 07:07:48;;;;;;;1.63;1.43;;;3.50;98.20;;;;;;5073870;28;20571;-76
2021/12/10 07:10:17;;;;;;;1.70;1.50;;;3.50;98.20;;;;;;5087686;28;21007;-75
2021/12/10 07:12:46;;;;;;;1.60;1.40;;;3.50;98.20;;;;;;5071098;28;20604;-75
2021/12/10 07:15:15;;;;;;;1.67;1.40;;;3.50;98.20;;;;;;5084799;28;20465;-76
2021/12/10 07:17:46;;;;;;;1.70;1.60;;;3.50;98.20;;;;;;5073081;28;20573;-76
2021/12/10 07:20:15;;;;;;;2.20;2.00;;;3.50;98.20;;;;;;5087439;28;20492;-75
2021/12/10 07:22:43;;;;;;;1.70;1.50;;;3.50;98.20;;;;;;5086464;27;21045;-76
2021/12/10 07:25:11;;;;;;;2.57;2.37;;;3.50;98.20;;;;;;5078433;28;20488;-74
2021/12/10 07:27:38;;;;;;;1.63;1.40;;;3.50;98.20;;;;;;5084287;28;20488;-73
2021/12/10 07:30:07;;;;;;;1.60;1.40;;;3.60;98.20;;;;;;5081583;28;20468;-74
2021/12/10 07:32:34;;;;;;;1.70;1.50;;;3.60;98.20;;;;;;5079300;28;20472;-73
2021/12/10 07:35:06;;;;;;;1.67;1.40;;;3.50;98.20;;;;;;5080250;28;21000;-74
2021/12/10 07:37:33;;;;;;;1.60;1.50;;;3.50;98.20;;;;;;5081385;28;20489;-75
2021/12/10 07:40:01;;;;;;;12.00;3.93;;;3.50;98.20;;;;;;5083439;28;20461;-74
2021/12/10 07:42:28;;;;;;;1.70;1.50;;;3.60;98.20;;;;;;5049207;28;20469;-75
2021/12/10 07:44:56;;;;;;;1.60;1.40;;;3.60;98.20;;;;;;5062570;28;20461;-74
2021/12/10 07:47:24;;;;;;;1.70;1.50;;;3.60;98.20;;;;;;5067907;28;20472;-74
2021/12/10 07:49:53;;;;;;;1.60;1.40;;;3.60;98.20;;;;;;5082863;28;20457;-74
2021/12/10 07:52:26;;;;;;;1.60;1.40;;;3.70;98.20;;;;;;5078851;28;21032;-74
2021/12/10 07:54:54;;;;;;;1.70;1.57;;;3.70;98.20;;;;;;5084248;28;20456;-75
2021/12/10 07:57:22;;;;;;;1.60;1.40;;;3.70;98.20;;;;;;5076748;28;20481;-77
2021/12/10 07:59:50;;;;;;;1.60;1.50;;;3.70;98.20;;;;;;5080055;28;20583;-76
2021/12/10 08:02:19;;;;;;;1.63;1.40;;;3.80;98.20;;;;;;5070042;27;20556;-76
2021/12/10 08:04:46;;;;;;;1.70;1.40;;;3.80;98.20;;;;;;5068806;28;20469;-77
2021/12/10 08:07:13;;;;;;;1.70;1.50;;;3.90;98.20;;;;;;5055255;28;20520;-76
2021/12/10 08:09:44;;;;;;;1.60;1.40;;;3.90;98.20;;;;;;5079726;28;20476;-76
2021/12/10 08:12:12;;;;;;;1.70;1.60;;;3.90;98.20;;;;;;5074845;28;20469;-77
2021/12/10 08:14:40;;;;;;;1.67;1.40;;;3.90;98.20;;;;;;5085249;28;20464;-76
2021/12/10 08:17:07;;;;;;;1.63;1.40;;;3.90;98.20;;;;;;5077314;28;21045;-76
2021/12/10 08:19:34;;;;;;;1.63;1.40;;;4.00;98.20;;;;;;5083742;28;20464;-76
2021/12/10 08:22:01;;;;;;;1.70;1.60;;;4.00;98.20;;;;;;5076009;28;20530;-76
2021/12/10 08:24:29;;;;;;;1.60;1.40;;;4.00;98.20;;;;;;5081952;28;20836;-75
2021/12/10 08:26:58;;;;;;;1.70;1.40;;;4.00;98.20;;;;;;5078459;28;20563;-76
2021/12/10 08:29:26;;;;;;;1.60;1.40;;;4.00;98.20;;;;;;5085920;28;20523;-76
2021/12/10 08:31:54;;;;;;;1.67;1.40;;;4.00;98.20;;;;;;5073995;28;20479;-76
2021/12/10 08:34:22;;;;;;;2.67;2.47;;;4.00;98.20;;;;;;5082940;28;20456;-76
2021/12/10 08:36:50;;;;;;;1.60;1.40;;;4.10;98.20;;;;;;5071987;28;20601;-76
2021/12/10 08:39:18;;;;;;;1.67;1.50;;;4.10;98.20;;;;;;5083933;28;20464;-76
2021/12/10 08:41:45;;;;;;;1.67;1.40;;;4.10;98.20;;;;;;5074914;28;20611;-76
2021/12/10 08:44:15;;;;;;;1.60;1.33;;;4.10;98.20;;;;;;5083865;28;20503;-77
2021/12/10 08:46:44;;;;;;;1.67;1.40;;;4.10;98.20;;;;;;5076876;28;20708;-77
2021/12/10 08:49:13;;;;;;;1.60;1.40;;;4.10;98.20;;;;;;5088729;28;20475;-77
2021/12/10 08:51:43;;;;;;;2.10;1.90;;;4.10;98.20;;;;;;5074537;28;20483;-77
2021/12/10 08:54:12;;;;;;;1.60;1.40;;;4.10;98.20;;;;;;5082967;28;20489;-77
2021/12/10 08:56:40;;;;;;;1.60;1.40;;;4.20;98.20;;;;;;5074356;28;20486;-76
2021/12/10 08:59:09;;;;;;;1.63;1.40;;;4.20;98.20;;;;;;5074148;28;20468;-77
2021/12/10 09:01:41;;;;;;;1.60;1.40;;;4.20;98.20;;;;;;5073590;28;21046;-76
2021/12/10 09:04:09;;;;;;;1.67;1.40;;;4.20;98.20;;;;;;5087461;28;20461;-77
2021/12/10 09:06:40;;;;;;;1.60;1.30;;;4.20;98.20;;;;;;5074526;28;20950;-77
2021/12/10 09:09:11;;;;;;;1.60;1.40;;;4.30;98.20;;;;;;5085219;28;20468;-77
2021/12/10 09:11:39;;;;;;;1.63;1.43;;;4.30;98.20;;;;;;5076271;28;21003;-76
2021/12/10 09:14:07;;;;;;;1.60;1.40;;;4.30;98.20;;;;;;5084131;28;20588;-77
2021/12/10 09:16:36;;;;;;;1.60;1.40;;;4.30;98.20;;;;;;5068377;28;20583;-76
2021/12/10 09:19:10;;;;;;;1.60;1.40;;;4.30;98.20;;;;;;5079030;28;20456;-76
2021/12/10 09:21:38;;;;;;;4.70;4.33;;;4.30;98.20;;;;;;5074571;28;20503;-77
2021/12/10 09:24:07;;;;;;;1.60;1.40;;;4.30;98.20;;;;;;5086627;28;20548;-76
2021/12/10 09:26:36;;;;;;;1.60;1.40;;;4.30;98.20;;;;;;5076836;28;20494;-76
2021/12/10 09:29:05;;;;;;;1.60;1.30;;;4.30;98.20;;;;;;5093687;28;20461;-74
2021/12/10 09:31:33;;;;;;;1.60;1.40;;;4.30;98.20;;;;;;5074453;28;20506;-73
2021/12/10 09:34:02;;;;;;;1.60;1.40;;;4.40;98.20;;;;;;5089360;28;20488;-74
2021/12/10 09:36:31;;;;;;;1.60;1.30;;;4.40;98.20;;;;;;5073228;28;20511;-74
2021/12/10 09:39:01;;;;;;;1.60;1.40;;;4.40;98.20;;;;;;5080670;28;20472;-75
2021/12/10 09:41:29;;;;;;;1.60;1.30;;;4.40;98.20;;;;;;5077299;28;20484;-74
2021/12/10 09:43:56;;;;;;;1.70;1.40;;;4.40;98.20;;;;;;5088312;28;20479;-74
2021/12/10 09:46:24;;;;;;;1.70;1.40;;;4.40;98.20;;;;;;5076767;28;20479;-74
2021/12/10 09:48:52;;;;;;;1.60;1.40;;;4.40;98.20;;;;;;5089774;28;20554;-75
2021/12/10 09:51:33;;;;;;;1.60;1.30;;;4.40;98.20;;;;;;5070310;28;20483;-74
2021/12/10 09:54:04;;;;;;;1.60;1.40;;;4.50;98.20;;;;;;5085459;28;20580;-74
2021/12/10 09:56:32;;;;;;;1.60;1.40;;;4.40;98.20;;;;;;5077630;28;20479;-74
2021/12/10 09:59:00;;;;;;;1.60;1.40;;;4.40;98.20;;;;;;5090417;28;20970;-74
2021/12/10 10:01:32;;;;;;;1.67;1.43;;;4.40;98.20;;;;;;5071648;28;21026;-74
2021/12/10 10:04:02;;;;;;;1.60;1.40;;;4.50;98.20;;;;;;5089286;28;20457;-74
2021/12/10 10:06:29;;;;;;;1.70;1.50;;;4.50;98.20;;;;;;5075665;28;21003;-74
2021/12/10 10:08:58;;;;;;;1.60;1.40;;;4.50;98.20;;;;;;5090467;28;20460;-77
2021/12/10 10:11:29;;;;;;;1.60;1.40;;;4.60;98.20;;;;;;5075456;28;20479;-74
2021/12/10 10:13:58;;;;;;;1.60;1.30;;;4.60;98.20;;;;;;5087552;28;20874;-74
2021/12/10 10:16:27;;;;;;;1.60;1.33;;;4.60;98.20;;;;;;5076842;28;20565;-74
2021/12/10 10:18:56;;;;;;;1.60;1.40;;;4.60;98.20;;;;;;5086498;28;20929;-75
2021/12/10 10:21:30;;;;;;;1.60;1.40;;;4.60;98.20;;;;;;5075986;28;20479;-75
2021/12/10 10:23:59;;;;;;;1.60;1.30;;;4.70;98.20;;;;;;5087966;28;20949;-75
2021/12/10 10:26:32;;;;;;;1.60;1.30;;;4.70;98.20;;;;;;5075750;28;20490;-74
2021/12/10 10:29:00;;;;;;;1.60;1.33;;;4.70;98.20;;;;;;5088776;28;20980;-74
2021/12/10 10:31:28;;;;;;;1.60;1.50;;;4.70;98.20;;;;;;5074811;28;20475;-75
2021/12/10 10:33:58;;;;;;;1.60;1.30;;;4.80;98.20;;;;;;5088695;28;20569;-74
2021/12/10 10:36:29;;;;;;;1.60;1.30;;;4.80;98.20;;;;;;5072035;28;20498;-75
2021/12/10 10:39:01;;;;;;;1.60;1.40;;;4.90;98.20;;;;;;5069614;28;20499;-74
2021/12/10 10:41:31;;;;;;;1.60;1.30;;;4.90;98.20;;;;;;5060973;28;20483;-74
2021/12/10 10:44:00;;;;;;;1.70;1.50;;;4.90;98.20;;;;;;5090033;28;20483;-74
2021/12/10 10:46:27;;;;;;;1.60;1.30;;;5.00;98.20;;;;;;5077066;28;20484;-74
2021/12/10 10:48:55;;;;;;;1.60;1.30;;;5.00;98.20;;;;;;5091315;28;20543;-75
2021/12/10 10:51:28;;;;;;;1.60;1.30;;;5.00;98.20;;;;;;5076207;28;20468;-74
2021/12/10 10:54:01;;;;;;;1.60;1.40;;;5.00;98.20;;;;;;5089278;28;20484;-73
2021/12/10 10:56:34;;;;;;;1.60;1.40;;;5.00;98.20;;;;;;5072737;28;20843;-73
2021/12/10 10:59:10;;;;;;;1.60;1.30;;;5.10;98.20;;;;;;5088732;28;20460;-74
2021/12/10 11:01:41;;;;;;;1.60;1.30;;;5.10;98.20;;;;;;5074329;28;21007;-74
2021/12/10 11:04:16;;;;;;;1.60;1.30;;;5.10;98.20;;;;;;5086062;28;20468;-74
2021/12/10 11:06:53;;;;;;;1.60;1.30;;;5.10;98.20;;;;;;5072397;28;20564;-74
2021/12/10 11:09:26;;;;;;;1.60;1.30;;;5.20;98.20;;;;;;5084663;28;20461;-74
2021/12/10 11:11:56;;;;;;;1.60;1.40;;;5.20;98.20;;;;;;5077946;28;20483;-74
2021/12/10 11:14:32;;;;;;;1.60;1.30;;;5.20;98.20;;;;;;5086092;28;20481;-74
2021/12/10 11:17:06;;;;;;;1.60;1.30;;;5.30;98.20;;;;;;5077131;28;20938;-74
2021/12/10 11:19:33;;;;;;;1.60;1.30;;;5.30;98.20;;;;;;5087735;28;20483;-74
2021/12/10 11:22:03;;;;;;;1.60;1.30;;;5.30;98.20;;;;;;5075837;28;20591;-74
2021/12/10 11:24:38;;;;;;;1.60;1.30;;;5.40;98.20;;;;;;5086762;28;20464;-74
2021/12/10 11:27:09;;;;;;;1.63;1.40;;;5.30;98.20;;;;;;5076987;28;20495;-74
2021/12/10 11:29:42;;;;;;;1.60;1.40;;;5.30;98.20;;;;;;5086479;28;20854;-74
2021/12/10 11:35:47;;;;;;;1.60;1.30;;;5.40;98.20;;;;;;5019703;28;20605;-74
2021/12/10 11:38:16;;;;;;;1.60;1.30;;;5.40;98.20;;;;;;5048698;28;20562;-75
2021/12/10 11:40:52;;;;;;;1.60;1.40;;;5.40;98.20;;;;;;5061914;28;20562;-74
2021/12/10 11:43:52;;;;;;;1.60;1.30;;;5.50;98.20;;;;;;5046231;28;20632;-75
2021/12/10 11:49:12;;;;;;;1.60;1.30;;;5.50;98.20;;;;;;5065965;28;20445;-75
2021/12/10 11:51:43;;;;;;;1.60;1.30;;;5.50;97.90;;;;;;5061829;28;20866;-74
2021/12/10 11:54:24;;;;;;;1.67;1.40;;;5.60;97.50;;;;;;5073559;28;20493;-75
2021/12/10 11:56:57;;;;;;;1.60;1.30;;;5.60;97.70;;;;;;5058471;28;20716;-74
2021/12/10 11:59:28;;;;;;;1.73;1.63;;;5.70;97.50;;;;;;5068037;28;20548;-75
2021/12/10 12:01:59;;;;;;;1.60;1.30;;;5.70;98.10;;;;;;5057754;28;20486;-74
2021/12/10 12:04:30;;;;;;;1.60;1.40;;;5.80;98.20;;;;;;5063214;28;20512;-75
2021/12/10 12:07:24;;;;;;;1.60;1.30;;;5.80;97.80;;;;;;5045377;28;20488;-74
2021/12/10 12:09:54;;;;;;;1.70;1.50;;;5.80;97.30;;;;;;5057937;28;20466;-76
2021/12/10 12:12:26;;;;;;;1.60;1.40;;;5.80;97.40;;;;;;5062152;28;20538;-75
2021/12/10 12:14:56;;;;;;;1.60;1.30;;;5.90;97.40;;;;;;5065838;28;20501;-76
2021/12/10 12:17:36;;;;;;;1.60;1.30;;;5.90;96.70;;;;;;5077103;28;20870;-76
2021/12/10 12:20:15;;;;;;;1.60;1.30;;;5.90;97.20;;;;;;5062820;28;20465;-75
2021/12/10 12:25:30;;;;;;;1.63;1.40;;;5.90;97.60;;;;;;5059388;28;21105;-76
2021/12/10 12:28:08;;;;;;;1.60;1.20;;;6.00;97.10;;;;;;5084542;27;20476;-77
2021/12/10 12:30:49;;;;;;;1.60;1.30;;;6.00;97.40;;;;;;5062157;28;20534;-74
2021/12/10 12:33:16;;;;;;;1.60;1.30;;;6.00;97.60;;;;;;5060575;28;20476;-74
2021/12/10 12:35:44;;;;;;;1.70;1.40;;;6.00;97.90;;;;;;5076916;28;20479;-74
2021/12/10 12:38:15;;;;;;;1.60;1.30;;;6.10;97.90;;;;;;5075451;28;20569;-73
2021/12/10 12:40:44;;;;;;;1.60;1.30;;;6.00;96.70;;;;;;5076679;28;20922;-73
2021/12/10 12:43:22;;;;;;;2.43;2.00;;;5.90;96.30;;;;;;5043643;28;21516;-73
2021/12/10 12:45:49;;;;;;;1.60;1.30;;;5.80;97.30;;;;;;5048068;28;20558;-73
2021/12/10 12:48:19;;;;;;;1.60;1.20;;;5.80;97.10;;;;;;5085648;28;20597;-74
2021/12/10 12:50:47;;;;;;;1.60;1.30;;;5.80;97.90;;;;;;5081302;28;20461;-73
2021/12/10 12:53:18;;;;;;;1.60;1.30;;;5.70;97.90;;;;;;5066389;28;20817;-73
2021/12/10 12:55:50;;;;;;;1.60;1.30;;;5.70;98.00;;;;;;5076505;28;20543;-74
2021/12/10 12:58:28;;;;;;;1.60;1.20;;;5.60;98.20;;;;;;5064651;28;20480;-73
2021/12/10 13:01:10;;;;;;;1.60;1.30;;;5.60;98.20;;;;;;5066411;28;20496;-74
2021/12/10 13:03:40;;;;;;;1.60;1.30;;;5.60;98.20;;;;;;5077383;28;20962;-74
2021/12/10 13:06:13;;;;;;;1.60;1.30;;;5.60;98.20;;;;;;5064030;28;20958;-73
2021/12/10 13:08:45;;;;;;;1.60;1.30;;;5.60;98.20;;;;;;5060747;28;20801;-74
2021/12/10 13:11:18;;;;;;;1.60;1.30;;;5.60;98.20;;;;;;5052971;28;20476;-73
2021/12/10 13:13:51;;;;;;;1.60;1.30;;;5.50;98.20;;;;;;5070607;28;20489;-73
2021/12/10 13:16:33;;;;;;;1.60;1.30;;;5.40;98.20;;;;;;5048938;28;20476;-73
2021/12/10 13:19:01;;;;;;;1.60;1.30;;;5.40;98.20;;;;;;5074325;28;20464;-74
2021/12/10 13:21:29;;;;;;;1.60;1.30;;;5.40;98.20;;;;;;5067922;28;20537;-74
2021/12/10 13:23:56;;;;;;;1.60;1.30;;;5.40;98.20;;;;;;5077066;28;20460;-73
2021/12/10 13:26:24;;;;;;;3.40;3.20;;;5.40;98.20;;;;;;5067475;28;20517;-74
2021/12/10 13:28:52;;;;;;;1.60;1.30;;;5.30;98.20;;;;;;5077983;28;20890;-73